sensor_id;sensor_type;location;lat;lon;timestamp;temperature;humidity
74364;DHT22;62797;49.740;10.154;2023-02-15T00:01:20;1.70;70.10
74364;DHT22;62797;49.740;10.154;2023-02-15T00:03:47;1.70;70.10
74364;DHT22;62797;49.740;10.154;2023-02-15T00:06:12;1.60;70.40
74364;DHT22;62797;49.740;10.154;2023-02-15T00:08:38;1.70;70.60
74364;DHT22;62797;49.740;10.154;2023-02-15T00:11:10;1.70;70.60
74364;DHT22;62797;49.740;10.154;2023-02-15T00:13:36;1.70;70.30
74364;DHT22;62797;49.740;10.154;2023-02-15T00:16:05;1.70;70.00
74364;DHT22;62797;49.740;10.154;2023-02-15T00:18:30;1.60;69.90
74364;DHT22;62797;49.740;10.154;2023-02-15T00:20:56;1.60;70.40
74364;DHT22;62797;49.740;10.154;2023-02-15T00:23:22;1.60;70.30
74364;DHT22;62797;49.740;10.154;2023-02-15T00:25:47;1.50;69.80
74364;DHT22;62797;49.740;10.154;2023-02-15T00:28:13;1.50;70.30
74364;DHT22;62797;49.740;10.154;2023-02-15T00:30:38;1.50;70.60
74364;DHT22;62797;49.740;10.154;2023-02-15T00:33:03;1.50;70.30
74364;DHT22;62797;49.740;10.154;2023-02-15T00:35:29;1.50;70.20
74364;DHT22;62797;49.740;10.154;2023-02-15T00:37:55;1.50;71.00
74364;DHT22;62797;49.740;10.154;2023-02-15T00:40:21;1.50;69.90
74364;DHT22;62797;49.740;10.154;2023-02-15T00:42:46;1.50;70.10
74364;DHT22;62797;49.740;10.154;2023-02-15T00:45:11;1.50;70.00
74364;DHT22;62797;49.740;10.154;2023-02-15T00:47:37;1.50;69.50
74364;DHT22;62797;49.740;10.154;2023-02-15T00:50:02;1.50;69.40
74364;DHT22;62797;49.740;10.154;2023-02-15T00:52:28;1.40;69.00
74364;DHT22;62797;49.740;10.154;2023-02-15T00:54:54;1.40;69.80
74364;DHT22;62797;49.740;10.154;2023-02-15T00:57:19;1.40;70.20
74364;DHT22;62797;49.740;10.154;2023-02-15T00:59:45;1.40;69.80
74364;DHT22;62797;49.740;10.154;2023-02-15T01:02:10;1.40;69.80
74364;DHT22;62797;49.740;10.154;2023-02-15T01:04:35;1.40;69.40
74364;DHT22;62797;49.740;10.154;2023-02-15T01:07:01;1.30;68.80
74364;DHT22;62797;49.740;10.154;2023-02-15T01:09:28;1.30;68.80
74364;DHT22;62797;49.740;10.154;2023-02-15T01:11:54;1.20;69.10
74364;DHT22;62797;49.740;10.154;2023-02-15T01:14:19;1.20;69.60
74364;DHT22;62797;49.740;10.154;2023-02-15T01:16:45;1.20;69.90
74364;DHT22;62797;49.740;10.154;2023-02-15T01:19:10;1.20;69.90
74364;DHT22;62797;49.740;10.154;2023-02-15T01:21:36;1.20;69.20
74364;DHT22;62797;49.740;10.154;2023-02-15T01:24:01;1.20;69.50
74364;DHT22;62797;49.740;10.154;2023-02-15T01:26:27;1.20;69.40
74364;DHT22;62797;49.740;10.154;2023-02-15T01:28:53;1.20;69.30
74364;DHT22;62797;49.740;10.154;2023-02-15T01:31:19;1.30;69.60
74364;DHT22;62797;49.740;10.154;2023-02-15T01:33:45;1.30;69.70
74364;DHT22;62797;49.740;10.154;2023-02-15T01:36:11;1.30;69.30
74364;DHT22;62797;49.740;10.154;2023-02-15T01:38:36;1.40;68.90
74364;DHT22;62797;49.740;10.154;2023-02-15T01:41:02;1.30;68.40
74364;DHT22;62797;49.740;10.154;2023-02-15T01:43:49;1.30;69.10
74364;DHT22;62797;49.740;10.154;2023-02-15T01:46:16;1.20;68.90
74364;DHT22;62797;49.740;10.154;2023-02-15T01:48:44;1.10;69.20
74364;DHT22;62797;49.740;10.154;2023-02-15T01:51:10;1.20;69.60
74364;DHT22;62797;49.740;10.154;2023-02-15T01:53:37;1.10;70.10
74364;DHT22;62797;49.740;10.154;2023-02-15T01:56:08;1.10;71.00
74364;DHT22;62797;49.740;10.154;2023-02-15T01:58:35;1.10;69.90
74364;DHT22;62797;49.740;10.154;2023-02-15T02:01:02;1.10;69.80
74364;DHT22;62797;49.740;10.154;2023-02-15T02:03:42;1.10;69.60
74364;DHT22;62797;49.740;10.154;2023-02-15T02:06:10;1.10;69.90
74364;DHT22;62797;49.740;10.154;2023-02-15T02:08:35;1.00;69.70
74364;DHT22;62797;49.740;10.154;2023-02-15T02:11:01;1.00;69.70
74364;DHT22;62797;49.740;10.154;2023-02-15T02:13:26;1.10;69.60
74364;DHT22;62797;49.740;10.154;2023-02-15T02:15:54;1.00;69.70
74364;DHT22;62797;49.740;10.154;2023-02-15T02:25:50;0.90;70.40
74364;DHT22;62797;49.740;10.154;2023-02-15T02:42:04;0.70;70.80
74364;DHT22;62797;49.740;10.154;2023-02-15T02:49:43;0.60;69.80
74364;DHT22;62797;49.740;10.154;2023-02-15T02:54:53;0.50;70.40
74364;DHT22;62797;49.740;10.154;2023-02-15T02:57:19;0.60;70.50
74364;DHT22;62797;49.740;10.154;2023-02-15T02:59:47;0.60;70.50
74364;DHT22;62797;49.740;10.154;2023-02-15T03:02:19;0.50;70.30
74364;DHT22;62797;49.740;10.154;2023-02-15T03:04:47;0.50;70.70
74364;DHT22;62797;49.740;10.154;2023-02-15T03:07:14;0.60;70.30
74364;DHT22;62797;49.740;10.154;2023-02-15T03:09:48;0.60;70.40
74364;DHT22;62797;49.740;10.154;2023-02-15T03:12:25;0.60;70.00
74364;DHT22;62797;49.740;10.154;2023-02-15T03:14:56;0.50;70.40
74364;DHT22;62797;49.740;10.154;2023-02-15T03:17:25;0.50;70.30
74364;DHT22;62797;49.740;10.154;2023-02-15T03:19:52;0.60;70.00
74364;DHT22;62797;49.740;10.154;2023-02-15T03:22:20;0.50;69.70
74364;DHT22;62797;49.740;10.154;2023-02-15T03:25:04;0.50;70.00
74364;DHT22;62797;49.740;10.154;2023-02-15T03:27:34;0.50;69.90
74364;DHT22;62797;49.740;10.154;2023-02-15T03:30:01;0.50;69.90
74364;DHT22;62797;49.740;10.154;2023-02-15T03:32:28;0.50;70.50
74364;DHT22;62797;49.740;10.154;2023-02-15T03:34:54;0.50;70.30
74364;DHT22;62797;49.740;10.154;2023-02-15T03:37:24;0.50;69.60
74364;DHT22;62797;49.740;10.154;2023-02-15T03:39:57;0.40;69.40
74364;DHT22;62797;49.740;10.154;2023-02-15T03:42:44;0.40;69.90
74364;DHT22;62797;49.740;10.154;2023-02-15T03:45:11;0.40;69.70
74364;DHT22;62797;49.740;10.154;2023-02-15T03:47:43;0.40;70.10
74364;DHT22;62797;49.740;10.154;2023-02-15T03:52:55;0.40;70.70
74364;DHT22;62797;49.740;10.154;2023-02-15T03:55:21;0.40;70.50
74364;DHT22;62797;49.740;10.154;2023-02-15T03:57:47;0.50;70.70
74364;DHT22;62797;49.740;10.154;2023-02-15T04:00:31;0.50;70.30
74364;DHT22;62797;49.740;10.154;2023-02-15T04:05:42;0.50;70.20
74364;DHT22;62797;49.740;10.154;2023-02-15T04:08:09;0.50;70.00
74364;DHT22;62797;49.740;10.154;2023-02-15T04:10:34;0.50;70.00
74364;DHT22;62797;49.740;10.154;2023-02-15T04:13:19;0.50;69.70
74364;DHT22;62797;49.740;10.154;2023-02-15T04:15:44;0.50;69.70
74364;DHT22;62797;49.740;10.154;2023-02-15T04:18:38;0.50;69.60
74364;DHT22;62797;49.740;10.154;2023-02-15T04:21:23;0.40;70.00
74364;DHT22;62797;49.740;10.154;2023-02-15T04:24:08;0.50;69.60
74364;DHT22;62797;49.740;10.154;2023-02-15T04:26:52;0.60;70.00
74364;DHT22;62797;49.740;10.154;2023-02-15T04:29:20;0.50;69.50
74364;DHT22;62797;49.740;10.154;2023-02-15T04:31:46;0.50;69.00
74364;DHT22;62797;49.740;10.154;2023-02-15T04:34:11;0.50;68.80
74364;DHT22;62797;49.740;10.154;2023-02-15T04:36:37;0.40;68.90
74364;DHT22;62797;49.740;10.154;2023-02-15T04:39:03;0.40;69.20
74364;DHT22;62797;49.740;10.154;2023-02-15T04:41:28;0.30;69.30
74364;DHT22;62797;49.740;10.154;2023-02-15T04:43:54;0.30;69.30
74364;DHT22;62797;49.740;10.154;2023-02-15T04:46:19;0.30;69.30
74364;DHT22;62797;49.740;10.154;2023-02-15T04:48:45;0.30;69.70
74364;DHT22;62797;49.740;10.154;2023-02-15T04:51:10;0.30;69.80
74364;DHT22;62797;49.740;10.154;2023-02-15T04:53:36;0.30;69.00
74364;DHT22;62797;49.740;10.154;2023-02-15T04:56:02;0.30;69.00
74364;DHT22;62797;49.740;10.154;2023-02-15T04:58:27;0.20;68.60
74364;DHT22;62797;49.740;10.154;2023-02-15T05:00:56;0.20;68.60
74364;DHT22;62797;49.740;10.154;2023-02-15T05:03:21;0.10;69.00
74364;DHT22;62797;49.740;10.154;2023-02-15T05:05:47;0.10;69.20
74364;DHT22;62797;49.740;10.154;2023-02-15T05:08:12;0.10;69.20
74364;DHT22;62797;49.740;10.154;2023-02-15T05:10:38;0.10;69.00
74364;DHT22;62797;49.740;10.154;2023-02-15T05:13:03;0.10;69.20
74364;DHT22;62797;49.740;10.154;2023-02-15T05:15:29;0.20;69.80
74364;DHT22;62797;49.740;10.154;2023-02-15T05:17:54;0.20;69.20
74364;DHT22;62797;49.740;10.154;2023-02-15T05:20:20;0.30;68.80
74364;DHT22;62797;49.740;10.154;2023-02-15T05:22:45;0.20;68.80
74364;DHT22;62797;49.740;10.154;2023-02-15T05:25:11;0.20;68.60
74364;DHT22;62797;49.740;10.154;2023-02-15T05:27:55;0.20;68.50
74364;DHT22;62797;49.740;10.154;2023-02-15T05:30:39;0.10;68.50
74364;DHT22;62797;49.740;10.154;2023-02-15T05:33:08;0.10;69.20
74364;DHT22;62797;49.740;10.154;2023-02-15T05:35:34;0.10;69.20
74364;DHT22;62797;49.740;10.154;2023-02-15T05:37:59;0.10;68.80
74364;DHT22;62797;49.740;10.154;2023-02-15T05:40:25;0.10;68.20
74364;DHT22;62797;49.740;10.154;2023-02-15T05:42:50;0.00;67.70
74364;DHT22;62797;49.740;10.154;2023-02-15T05:45:16;-0.10;67.90
74364;DHT22;62797;49.740;10.154;2023-02-15T05:47:43;-0.20;68.50
74364;DHT22;62797;49.740;10.154;2023-02-15T05:50:08;-0.20;68.50
74364;DHT22;62797;49.740;10.154;2023-02-15T05:52:35;-0.30;70.10
74364;DHT22;62797;49.740;10.154;2023-02-15T05:55:00;-0.30;69.50
74364;DHT22;62797;49.740;10.154;2023-02-15T05:57:27;-0.30;69.60
74364;DHT22;62797;49.740;10.154;2023-02-15T05:59:53;-0.30;69.70
74364;DHT22;62797;49.740;10.154;2023-02-15T06:02:18;-0.20;69.40
74364;DHT22;62797;49.740;10.154;2023-02-15T06:04:44;-0.30;69.50
74364;DHT22;62797;49.740;10.154;2023-02-15T06:10:12;-0.30;68.80
74364;DHT22;62797;49.740;10.154;2023-02-15T06:12:39;-0.30;69.80
74364;DHT22;62797;49.740;10.154;2023-02-15T06:15:04;-0.30;69.60
74364;DHT22;62797;49.740;10.154;2023-02-15T06:17:30;-0.30;69.50
74364;DHT22;62797;49.740;10.154;2023-02-15T06:19:55;-0.30;69.00
74364;DHT22;62797;49.740;10.154;2023-02-15T06:22:22;-0.20;68.60
74364;DHT22;62797;49.740;10.154;2023-02-15T06:24:47;-0.30;68.80
74364;DHT22;62797;49.740;10.154;2023-02-15T06:27:13;-0.30;68.70
74364;DHT22;62797;49.740;10.154;2023-02-15T06:29:38;-0.30;68.30
74364;DHT22;62797;49.740;10.154;2023-02-15T06:32:04;-0.40;69.00
74364;DHT22;62797;49.740;10.154;2023-02-15T06:34:30;-0.40;67.90
74364;DHT22;62797;49.740;10.154;2023-02-15T06:36:56;-0.50;68.10
74364;DHT22;62797;49.740;10.154;2023-02-15T06:39:21;-0.50;68.90
74364;DHT22;62797;49.740;10.154;2023-02-15T06:41:46;-0.50;68.20
74364;DHT22;62797;49.740;10.154;2023-02-15T06:44:12;-0.50;68.20
74364;DHT22;62797;49.740;10.154;2023-02-15T06:46:37;-0.50;69.40
74364;DHT22;62797;49.740;10.154;2023-02-15T06:49:03;-0.50;68.80
74364;DHT22;62797;49.740;10.154;2023-02-15T06:51:29;-0.50;68.40
74364;DHT22;62797;49.740;10.154;2023-02-15T06:53:54;-0.50;68.50
74364;DHT22;62797;49.740;10.154;2023-02-15T06:56:19;-0.50;69.10
74364;DHT22;62797;49.740;10.154;2023-02-15T06:58:45;-0.50;69.10
74364;DHT22;62797;49.740;10.154;2023-02-15T07:01:11;-0.50;68.30
74364;DHT22;62797;49.740;10.154;2023-02-15T07:03:37;-0.50;68.50
74364;DHT22;62797;49.740;10.154;2023-02-15T07:06:03;-0.50;69.00
74364;DHT22;62797;49.740;10.154;2023-02-15T07:08:31;-0.40;68.00
74364;DHT22;62797;49.740;10.154;2023-02-15T07:10:56;-0.40;68.70
74364;DHT22;62797;49.740;10.154;2023-02-15T07:13:42;-0.40;68.70
74364;DHT22;62797;49.740;10.154;2023-02-15T07:16:10;-0.30;68.40
74364;DHT22;62797;49.740;10.154;2023-02-15T07:18:36;-0.40;67.70
74364;DHT22;62797;49.740;10.154;2023-02-15T07:21:01;-0.30;67.70
74364;DHT22;62797;49.740;10.154;2023-02-15T07:23:27;-0.30;66.90
74364;DHT22;62797;49.740;10.154;2023-02-15T07:25:56;-0.40;66.80
74364;DHT22;62797;49.740;10.154;2023-02-15T07:28:22;-0.40;67.60
74364;DHT22;62797;49.740;10.154;2023-02-15T07:30:47;-0.40;67.20
74364;DHT22;62797;49.740;10.154;2023-02-15T07:33:13;-0.40;67.90
74364;DHT22;62797;49.740;10.154;2023-02-15T07:35:52;-0.30;68.00
74364;DHT22;62797;49.740;10.154;2023-02-15T07:38:18;-0.30;68.30
74364;DHT22;62797;49.740;10.154;2023-02-15T07:40:44;-0.20;67.50
74364;DHT22;62797;49.740;10.154;2023-02-15T07:43:10;-0.30;67.00
74364;DHT22;62797;49.740;10.154;2023-02-15T07:45:36;-0.30;67.00
74364;DHT22;62797;49.740;10.154;2023-02-15T07:48:02;-0.30;67.20
74364;DHT22;62797;49.740;10.154;2023-02-15T07:50:28;-0.20;67.90
74364;DHT22;62797;49.740;10.154;2023-02-15T07:52:53;-0.20;66.60
74364;DHT22;62797;49.740;10.154;2023-02-15T07:55:19;-0.20;65.90
74364;DHT22;62797;49.740;10.154;2023-02-15T07:57:45;-0.30;66.00
74364;DHT22;62797;49.740;10.154;2023-02-15T08:00:14;-0.30;67.20
74364;DHT22;62797;49.740;10.154;2023-02-15T08:02:40;-0.20;67.40
74364;DHT22;62797;49.740;10.154;2023-02-15T08:05:06;-0.20;66.50
74364;DHT22;62797;49.740;10.154;2023-02-15T08:07:31;-0.20;65.50
74364;DHT22;62797;49.740;10.154;2023-02-15T08:09:57;-0.30;65.90
74364;DHT22;62797;49.740;10.154;2023-02-15T08:12:25;-0.30;66.50
74364;DHT22;62797;49.740;10.154;2023-02-15T08:14:51;-0.40;66.20
74364;DHT22;62797;49.740;10.154;2023-02-15T08:17:16;-0.30;67.10
74364;DHT22;62797;49.740;10.154;2023-02-15T08:19:42;-0.20;67.50
74364;DHT22;62797;49.740;10.154;2023-02-15T08:22:07;-0.10;67.20
74364;DHT22;62797;49.740;10.154;2023-02-15T08:24:36;-0.10;67.30
74364;DHT22;62797;49.740;10.154;2023-02-15T08:27:02;-0.10;66.60
74364;DHT22;62797;49.740;10.154;2023-02-15T08:29:29;0.00;65.90
74364;DHT22;62797;49.740;10.154;2023-02-15T08:31:55;0.00;66.30
74364;DHT22;62797;49.740;10.154;2023-02-15T08:34:24;0.10;66.90
74364;DHT22;62797;49.740;10.154;2023-02-15T08:36:49;0.10;65.60
74364;DHT22;62797;49.740;10.154;2023-02-15T08:39:16;0.10;65.80
74364;DHT22;62797;49.740;10.154;2023-02-15T08:41:42;0.20;65.70
74364;DHT22;62797;49.740;10.154;2023-02-15T08:44:08;0.20;65.20
74364;DHT22;62797;49.740;10.154;2023-02-15T08:46:35;0.20;65.40
74364;DHT22;62797;49.740;10.154;2023-02-15T08:49:01;0.30;65.30
74364;DHT22;62797;49.740;10.154;2023-02-15T08:51:29;0.30;65.80
74364;DHT22;62797;49.740;10.154;2023-02-15T08:53:55;0.40;65.70
74364;DHT22;62797;49.740;10.154;2023-02-15T08:56:22;0.50;65.90
74364;DHT22;62797;49.740;10.154;2023-02-15T08:58:47;0.60;65.40
74364;DHT22;62797;49.740;10.154;2023-02-15T09:01:13;0.60;63.90
74364;DHT22;62797;49.740;10.154;2023-02-15T09:03:43;0.60;63.50
74364;DHT22;62797;49.740;10.154;2023-02-15T09:06:08;0.50;63.60
74364;DHT22;62797;49.740;10.154;2023-02-15T09:08:34;0.60;62.00
74364;DHT22;62797;49.740;10.154;2023-02-15T09:11:10;0.40;62.70
74364;DHT22;62797;49.740;10.154;2023-02-15T09:13:35;0.40;63.80
74364;DHT22;62797;49.740;10.154;2023-02-15T09:16:05;0.50;62.80
74364;DHT22;62797;49.740;10.154;2023-02-15T09:18:31;0.50;63.50
74364;DHT22;62797;49.740;10.154;2023-02-15T09:21:05;0.50;63.40
74364;DHT22;62797;49.740;10.154;2023-02-15T09:23:31;0.50;62.80
74364;DHT22;62797;49.740;10.154;2023-02-15T09:25:56;0.50;62.90
74364;DHT22;62797;49.740;10.154;2023-02-15T09:28:22;0.50;63.10
74364;DHT22;62797;49.740;10.154;2023-02-15T09:30:47;0.50;63.10
74364;DHT22;62797;49.740;10.154;2023-02-15T09:33:13;0.50;63.50
74364;DHT22;62797;49.740;10.154;2023-02-15T09:35:38;0.50;62.80
74364;DHT22;62797;49.740;10.154;2023-02-15T09:38:04;0.50;62.10
74364;DHT22;62797;49.740;10.154;2023-02-15T09:40:30;0.50;62.30
74364;DHT22;62797;49.740;10.154;2023-02-15T09:43:02;0.40;62.40
74364;DHT22;62797;49.740;10.154;2023-02-15T09:45:42;0.40;61.70
74364;DHT22;62797;49.740;10.154;2023-02-15T09:48:17;0.30;62.00
74364;DHT22;62797;49.740;10.154;2023-02-15T09:51:03;0.30;62.40
74364;DHT22;62797;49.740;10.154;2023-02-15T10:06:42;0.90;62.30
74364;DHT22;62797;49.740;10.154;2023-02-15T10:11:47;1.10;60.90
74364;DHT22;62797;49.740;10.154;2023-02-15T10:22:20;1.10;61.20
74364;DHT22;62797;49.740;10.154;2023-02-15T10:27:39;1.10;60.00
74364;DHT22;62797;49.740;10.154;2023-02-15T10:30:10;1.20;60.80
74364;DHT22;62797;49.740;10.154;2023-02-15T10:32:46;1.20;60.60
74364;DHT22;62797;49.740;10.154;2023-02-15T10:35:22;1.30;60.20
74364;DHT22;62797;49.740;10.154;2023-02-15T10:37:52;1.30;60.60
74364;DHT22;62797;49.740;10.154;2023-02-15T10:40:28;1.30;58.90
74364;DHT22;62797;49.740;10.154;2023-02-15T10:43:00;1.20;59.80
74364;DHT22;62797;49.740;10.154;2023-02-15T10:45:33;1.30;60.10
74364;DHT22;62797;49.740;10.154;2023-02-15T10:55:55;1.70;59.70
74364;DHT22;62797;49.740;10.154;2023-02-15T10:58:30;1.80;59.30
74364;DHT22;62797;49.740;10.154;2023-02-15T11:08:23;1.90;58.10
74364;DHT22;62797;49.740;10.154;2023-02-15T11:10:59;1.90;57.50
74364;DHT22;62797;49.740;10.154;2023-02-15T11:13:27;1.80;57.60
74364;DHT22;62797;49.740;10.154;2023-02-15T11:15:58;1.80;57.40
74364;DHT22;62797;49.740;10.154;2023-02-15T11:18:32;1.70;56.70
74364;DHT22;62797;49.740;10.154;2023-02-15T11:23:23;1.70;58.70
74364;DHT22;62797;49.740;10.154;2023-02-15T11:28:47;1.90;58.00
74364;DHT22;62797;49.740;10.154;2023-02-15T11:31:13;1.90;57.70
74364;DHT22;62797;49.740;10.154;2023-02-15T11:33:42;2.00;56.90
74364;DHT22;62797;49.740;10.154;2023-02-15T11:36:12;2.00;56.80
74364;DHT22;62797;49.740;10.154;2023-02-15T11:38:38;2.10;57.60
74364;DHT22;62797;49.740;10.154;2023-02-15T11:41:16;2.20;57.40
74364;DHT22;62797;49.740;10.154;2023-02-15T11:43:46;2.30;57.20
74364;DHT22;62797;49.740;10.154;2023-02-15T11:46:15;2.50;56.20
74364;DHT22;62797;49.740;10.154;2023-02-15T11:48:41;2.50;56.40
74364;DHT22;62797;49.740;10.154;2023-02-15T11:51:14;2.60;55.80
74364;DHT22;62797;49.740;10.154;2023-02-15T11:53:41;2.60;56.30
74364;DHT22;62797;49.740;10.154;2023-02-15T11:56:15;2.80;56.90
74364;DHT22;62797;49.740;10.154;2023-02-15T11:58:45;2.80;55.30
74364;DHT22;62797;49.740;10.154;2023-02-15T12:03:42;2.60;54.30
74364;DHT22;62797;49.740;10.154;2023-02-15T12:06:13;2.60;55.00
74364;DHT22;62797;49.740;10.154;2023-02-15T12:08:41;2.70;56.00
74364;DHT22;62797;49.740;10.154;2023-02-15T12:11:15;2.80;55.40
74364;DHT22;62797;49.740;10.154;2023-02-15T12:13:59;3.00;56.10
74364;DHT22;62797;49.740;10.154;2023-02-15T12:16:25;3.10;54.80
74364;DHT22;62797;49.740;10.154;2023-02-15T12:18:53;3.10;54.20
74364;DHT22;62797;49.740;10.154;2023-02-15T12:21:24;3.20;54.10
74364;DHT22;62797;49.740;10.154;2023-02-15T12:23:50;3.20;54.50
74364;DHT22;62797;49.740;10.154;2023-02-15T12:26:26;3.30;54.40
74364;DHT22;62797;49.740;10.154;2023-02-15T12:28:52;3.40;53.50
74364;DHT22;62797;49.740;10.154;2023-02-15T12:31:33;3.50;53.40
74364;DHT22;62797;49.740;10.154;2023-02-15T12:33:59;3.50;52.60
74364;DHT22;62797;49.740;10.154;2023-02-15T12:36:29;3.70;53.40
74364;DHT22;62797;49.740;10.154;2023-02-15T12:41:48;3.80;52.30
74364;DHT22;62797;49.740;10.154;2023-02-15T12:44:26;3.80;51.70
74364;DHT22;62797;49.740;10.154;2023-02-15T12:49:38;3.70;52.90
74364;DHT22;62797;49.740;10.154;2023-02-15T12:52:05;3.70;52.10
74364;DHT22;62797;49.740;10.154;2023-02-15T12:57:13;3.90;52.50
74364;DHT22;62797;49.740;10.154;2023-02-15T12:59:52;4.10;51.50
74364;DHT22;62797;49.740;10.154;2023-02-15T13:02:20;4.10;51.90
74364;DHT22;62797;49.740;10.154;2023-02-15T13:04:47;4.30;51.50
74364;DHT22;62797;49.740;10.154;2023-02-15T13:07:13;4.30;49.20
74364;DHT22;62797;49.740;10.154;2023-02-15T13:09:40;4.30;50.20
74364;DHT22;62797;49.740;10.154;2023-02-15T13:12:24;4.40;49.20
74364;DHT22;62797;49.740;10.154;2023-02-15T13:14:54;4.50;50.60
74364;DHT22;62797;49.740;10.154;2023-02-15T13:17:21;4.70;51.20
74364;DHT22;62797;49.740;10.154;2023-02-15T13:19:50;4.60;48.30
74364;DHT22;62797;49.740;10.154;2023-02-15T13:22:21;4.60;49.60
74364;DHT22;62797;49.740;10.154;2023-02-15T13:24:57;4.80;50.20
74364;DHT22;62797;49.740;10.154;2023-02-15T13:27:24;5.00;49.70
74364;DHT22;62797;49.740;10.154;2023-02-15T13:29:52;5.20;45.30
74364;DHT22;62797;49.740;10.154;2023-02-15T13:32:26;4.90;47.40
74364;DHT22;62797;49.740;10.154;2023-02-15T13:34:54;5.00;47.10
74364;DHT22;62797;49.740;10.154;2023-02-15T13:40:18;5.20;46.90
74364;DHT22;62797;49.740;10.154;2023-02-15T13:42:52;5.30;49.50
74364;DHT22;62797;49.740;10.154;2023-02-15T13:51:06;7.60;43.60
74364;DHT22;62797;49.740;10.154;2023-02-15T13:53:37;8.30;40.70
74364;DHT22;62797;49.740;10.154;2023-02-15T13:56:17;8.50;37.80
74364;DHT22;62797;49.740;10.154;2023-02-15T14:01:10;9.10;34.70
74364;DHT22;62797;49.740;10.154;2023-02-15T14:06:08;9.10;36.10
74364;DHT22;62797;49.740;10.154;2023-02-15T14:16:27;10.70;27.20
74364;DHT22;62797;49.740;10.154;2023-02-15T14:21:45;10.90;28.50
74364;DHT22;62797;49.740;10.154;2023-02-15T14:26:54;10.90;26.30
74364;DHT22;62797;49.740;10.154;2023-02-15T14:32:10;10.50;26.80
74364;DHT22;62797;49.740;10.154;2023-02-15T14:34:41;10.40;27.70
74364;DHT22;62797;49.740;10.154;2023-02-15T14:37:09;10.50;27.50
74364;DHT22;62797;49.740;10.154;2023-02-15T14:45:05;10.90;27.10
74364;DHT22;62797;49.740;10.154;2023-02-15T15:50:53;8.80;30.00
74364;DHT22;62797;49.740;10.154;2023-02-15T15:53:24;8.50;30.70
74364;DHT22;62797;49.740;10.154;2023-02-15T15:55:54;8.10;32.30
74364;DHT22;62797;49.740;10.154;2023-02-15T15:58:22;7.90;32.90
74364;DHT22;62797;49.740;10.154;2023-02-15T16:00:51;7.60;33.90
74364;DHT22;62797;49.740;10.154;2023-02-15T16:03:26;7.40;34.60
74364;DHT22;62797;49.740;10.154;2023-02-15T16:05:52;7.10;35.00
74364;DHT22;62797;49.740;10.154;2023-02-15T16:08:38;6.90;35.60
74364;DHT22;62797;49.740;10.154;2023-02-15T16:11:25;6.70;35.50
74364;DHT22;62797;49.740;10.154;2023-02-15T16:13:52;6.40;37.10
74364;DHT22;62797;49.740;10.154;2023-02-15T16:16:24;6.00;37.40
74364;DHT22;62797;49.740;10.154;2023-02-15T16:18:51;5.60;38.80
74364;DHT22;62797;49.740;10.154;2023-02-15T16:21:21;5.30;39.30
74364;DHT22;62797;49.740;10.154;2023-02-15T16:24:20;5.10;40.20
74364;DHT22;62797;49.740;10.154;2023-02-15T16:27:17;4.80;40.80
74364;DHT22;62797;49.740;10.154;2023-02-15T16:29:44;4.50;43.30
74364;DHT22;62797;49.740;10.154;2023-02-15T16:32:24;4.20;45.70
74364;DHT22;62797;49.740;10.154;2023-02-15T16:34:55;3.90;46.10
74364;DHT22;62797;49.740;10.154;2023-02-15T16:37:24;3.70;47.10
74364;DHT22;62797;49.740;10.154;2023-02-15T16:39:52;3.50;47.70
74364;DHT22;62797;49.740;10.154;2023-02-15T16:42:18;3.30;49.60
74364;DHT22;62797;49.740;10.154;2023-02-15T16:45:06;3.10;49.90
74364;DHT22;62797;49.740;10.154;2023-02-15T16:47:36;3.00;49.40
74364;DHT22;62797;49.740;10.154;2023-02-15T16:50:05;2.90;50.70
74364;DHT22;62797;49.740;10.154;2023-02-15T16:52:31;2.70;50.50
74364;DHT22;62797;49.740;10.154;2023-02-15T16:55:03;2.50;50.80
74364;DHT22;62797;49.740;10.154;2023-02-15T16:57:35;2.30;52.50
74364;DHT22;62797;49.740;10.154;2023-02-15T17:00:05;2.20;53.10
74364;DHT22;62797;49.740;10.154;2023-02-15T17:02:33;2.10;54.10
74364;DHT22;62797;49.740;10.154;2023-02-15T17:07:41;1.90;53.50
74364;DHT22;62797;49.740;10.154;2023-02-15T17:12:54;1.60;55.20
74364;DHT22;62797;49.740;10.154;2023-02-15T17:16:17;1.60;55.60
74364;DHT22;62797;49.740;10.154;2023-02-15T17:18:49;1.50;55.80
74364;DHT22;62797;49.740;10.154;2023-02-15T17:21:19;1.30;57.40
74364;DHT22;62797;49.740;10.154;2023-02-15T17:23:47;1.20;55.50
74364;DHT22;62797;49.740;10.154;2023-02-15T17:26:34;1.10;56.90
74364;DHT22;62797;49.740;10.154;2023-02-15T17:29:45;1.00;57.50
74364;DHT22;62797;49.740;10.154;2023-02-15T17:32:05;0.90;57.90
74364;DHT22;62797;49.740;10.154;2023-02-15T17:38:05;0.80;57.30
74364;DHT22;62797;49.740;10.154;2023-02-15T17:40:34;0.70;57.60
74364;DHT22;62797;49.740;10.154;2023-02-15T17:43:00;0.70;56.90
74364;DHT22;62797;49.740;10.154;2023-02-15T17:45:31;0.60;57.50
74364;DHT22;62797;49.740;10.154;2023-02-15T17:47:57;0.50;58.50
74364;DHT22;62797;49.740;10.154;2023-02-15T17:50:25;0.40;58.80
74364;DHT22;62797;49.740;10.154;2023-02-15T17:52:52;0.40;59.50
74364;DHT22;62797;49.740;10.154;2023-02-15T17:55:20;0.30;59.50
74364;DHT22;62797;49.740;10.154;2023-02-15T17:58:13;0.30;59.10
74364;DHT22;62797;49.740;10.154;2023-02-15T18:00:42;0.20;59.40
74364;DHT22;62797;49.740;10.154;2023-02-15T18:03:37;0.20;59.40
74364;DHT22;62797;49.740;10.154;2023-02-15T18:06:21;0.10;60.10
74364;DHT22;62797;49.740;10.154;2023-02-15T18:09:10;0.10;59.00
74364;DHT22;62797;49.740;10.154;2023-02-15T18:11:54;0.10;59.40
74364;DHT22;62797;49.740;10.154;2023-02-15T18:14:20;0.10;60.90
74364;DHT22;62797;49.740;10.154;2023-02-15T18:16:46;0.10;61.10
74364;DHT22;62797;49.740;10.154;2023-02-15T18:19:21;0.10;60.80
74364;DHT22;62797;49.740;10.154;2023-02-15T18:21:47;0.10;62.00
74364;DHT22;62797;49.740;10.154;2023-02-15T18:24:21;0.10;62.00
74364;DHT22;62797;49.740;10.154;2023-02-15T18:26:49;0.10;61.80
74364;DHT22;62797;49.740;10.154;2023-02-15T18:29:15;0.10;61.00
74364;DHT22;62797;49.740;10.154;2023-02-15T18:31:41;0.00;61.70
74364;DHT22;62797;49.740;10.154;2023-02-15T18:34:20;0.00;62.20
74364;DHT22;62797;49.740;10.154;2023-02-15T18:36:46;0.00;62.00
74364;DHT22;62797;49.740;10.154;2023-02-15T18:39:39;0.00;61.80
74364;DHT22;62797;49.740;10.154;2023-02-15T18:42:20;0.00;62.80
74364;DHT22;62797;49.740;10.154;2023-02-15T18:44:47;0.00;63.70
74364;DHT22;62797;49.740;10.154;2023-02-15T18:47:12;-0.10;64.10
74364;DHT22;62797;49.740;10.154;2023-02-15T18:49:38;-0.10;63.00
74364;DHT22;62797;49.740;10.154;2023-02-15T18:52:03;-0.10;62.50
74364;DHT22;62797;49.740;10.154;2023-02-15T18:54:29;-0.20;62.60
74364;DHT22;62797;49.740;10.154;2023-02-15T18:56:59;-0.20;62.80
74364;DHT22;62797;49.740;10.154;2023-02-15T18:59:26;-0.30;63.10
74364;DHT22;62797;49.740;10.154;2023-02-15T19:01:53;-0.30;62.90
74364;DHT22;62797;49.740;10.154;2023-02-15T19:04:19;-0.40;63.40